Time;durP1;ratioP1;P1;durP2;ratioP2;P2;SDS_P1;SDS_P2;PMS_P1;PMS_P2;Temp;Humidity;BMP_temperature;BMP_pressure;BME280_temperature;BME280_humidity;BME280_pressure;Samples;Min_cycle;Max_cycle;Signal;HPM_P1;HPM_P2
2024/02/19 00:00:51;;;;;;;29.17;28.27;;;22.20;58.20;;;;;;5034930;28;20468;-67
2024/02/19 00:03:18;;;;;;;28.20;27.10;;;22.20;58.30;;;;;;5034805;28;20469;-67
2024/02/19 00:05:45;;;;;;;27.93;27.03;;;22.20;58.30;;;;;;5034821;28;20460;-67
2024/02/19 00:08:14;;;;;;;26.97;26.17;;;22.10;58.40;;;;;;5035912;28;20447;-67
2024/02/19 00:10:40;;;;;;;27.70;26.80;;;22.10;58.40;;;;;;5026637;28;20552;-67
2024/02/19 00:13:07;;;;;;;27.90;27.10;;;22.10;58.40;;;;;;5034797;28;20468;-67
2024/02/19 00:15:34;;;;;;;28.40;27.57;;;22.10;58.50;;;;;;5034769;28;20464;-67
2024/02/19 00:18:01;;;;;;;28.50;27.60;;;22.00;58.50;;;;;;5035201;28;20518;-67
2024/02/19 00:20:28;;;;;;;27.80;26.90;;;22.10;58.50;;;;;;5034510;28;20464;-67
2024/02/19 00:26:26;;;;;;;27.13;26.33;;;22.00;58.50;;;;;;5031163;28;20486;-67
2024/02/19 00:28:53;;;;;;;26.13;25.33;;;22.00;58.60;;;;;;5034552;28;20936;-67
2024/02/19 00:31:20;;;;;;;28.30;27.40;;;21.90;58.60;;;;;;5041840;28;20489;-67
2024/02/19 00:33:47;;;;;;;26.73;25.93;;;21.90;58.60;;;;;;5034281;28;20448;-67
2024/02/19 00:36:14;;;;;;;27.00;26.20;;;21.90;58.70;;;;;;5039692;28;20464;-67
2024/02/19 00:38:41;;;;;;;27.20;26.40;;;21.90;58.80;;;;;;5036953;28;20452;-67
2024/02/19 00:41:08;;;;;;;27.30;26.50;;;21.90;58.80;;;;;;5025017;28;20457;-67
2024/02/19 00:43:37;;;;;;;26.70;25.80;;;21.90;58.80;;;;;;5023564;28;20446;-67
2024/02/19 00:46:04;;;;;;;26.90;26.10;;;21.90;58.80;;;;;;5031827;28;20997;-67
2024/02/19 00:48:31;;;;;;;26.20;25.40;;;21.90;58.90;;;;;;5007888;28;20450;-67
2024/02/19 00:50:58;;;;;;;26.73;25.93;;;21.80;58.80;;;;;;4924208;28;20493;-67
2024/02/19 00:53:24;;;;;;;26.57;25.67;;;21.80;58.80;;;;;;4956831;28;20444;-67
2024/02/19 01:03:19;;;;;;;27.53;26.53;;;21.80;59.00;;;;;;5160204;27;21037;-66
2024/02/19 01:05:45;;;;;;;27.67;26.77;;;21.80;59.10;;;;;;5111922;28;20462;-66
2024/02/19 01:08:12;;;;;;;27.57;26.67;;;21.70;59.00;;;;;;5080837;28;20446;-66
2024/02/19 01:10:38;;;;;;;27.80;26.90;;;21.70;59.10;;;;;;5095643;28;20771;-66
2024/02/19 01:13:04;;;;;;;26.83;26.03;;;21.70;59.10;;;;;;5097617;28;20484;-66
2024/02/19 01:15:30;;;;;;;27.40;26.43;;;21.70;59.10;;;;;;5038353;28;20480;-66
2024/02/19 01:17:56;;;;;;;26.97;26.17;;;21.70;59.10;;;;;;5001100;28;20445;-66
2024/02/19 01:20:23;;;;;;;27.10;26.20;;;21.70;59.10;;;;;;4999019;28;20435;-66
2024/02/19 01:27:52;;;;;;;28.13;27.30;;;21.60;59.30;;;;;;5159017;27;20523;-66
2024/02/19 01:30:18;;;;;;;28.07;27.07;;;21.60;59.30;;;;;;5139855;27;20900;-65
2024/02/19 01:32:44;;;;;;;27.17;26.37;;;21.60;59.30;;;;;;5119362;27;20442;-66
2024/02/19 01:35:11;;;;;;;27.97;27.00;;;21.60;59.40;;;;;;4974723;28;2443479;-66
2024/02/19 01:37:38;;;;;;;27.53;26.73;;;21.60;59.40;;;;;;5026754;28;20198;-67
2024/02/19 01:40:07;;;;;;;28.60;27.70;;;21.60;59.40;;;;;;5028705;28;20448;-66
2024/02/19 01:42:34;;;;;;;27.93;27.13;;;21.60;59.50;;;;;;5028849;28;20468;-66
2024/02/19 01:45:02;;;;;;;27.50;26.70;;;21.60;59.50;;;;;;5028251;28;20449;-66
2024/02/19 01:47:30;;;;;;;28.20;27.27;;;21.50;59.40;;;;;;5028403;28;20480;-66
2024/02/19 01:49:57;;;;;;;28.67;27.63;;;21.50;59.50;;;;;;5028639;28;20452;-66
2024/02/19 01:52:24;;;;;;;27.40;26.30;;;21.50;59.50;;;;;;5028675;28;20433;-66
2024/02/19 01:54:52;;;;;;;27.83;26.93;;;21.50;59.60;;;;;;5028030;28;20446;-66
2024/02/19 01:57:19;;;;;;;28.47;27.47;;;21.50;59.70;;;;;;5028259;28;20464;-66
2024/02/19 01:59:47;;;;;;;28.23;27.10;;;21.50;59.70;;;;;;5028503;28;20446;-66
2024/02/19 02:02:17;;;;;;;27.37;26.57;;;21.40;59.60;;;;;;5028432;28;20503;-66
2024/02/19 02:04:44;;;;;;;27.00;26.20;;;21.50;59.70;;;;;;5027856;28;20449;-67
2024/02/19 02:07:11;;;;;;;28.07;27.20;;;21.50;59.70;;;;;;5027980;28;20485;-66
2024/02/19 02:09:38;;;;;;;28.33;27.40;;;21.40;59.70;;;;;;5028285;28;20446;-66
2024/02/19 02:12:06;;;;;;;26.80;25.90;;;21.50;59.80;;;;;;5028040;28;20441;-66
2024/02/19 02:14:32;;;;;;;28.77;27.87;;;21.40;59.80;;;;;;5027673;28;20449;-66
2024/02/19 02:16:59;;;;;;;26.77;25.97;;;21.40;59.80;;;;;;5027704;28;20461;-66
2024/02/19 02:19:27;;;;;;;27.80;27.00;;;21.40;59.80;;;;;;5028029;28;20643;-66
2024/02/19 02:21:54;;;;;;;27.53;26.47;;;21.40;59.80;;;;;;5028119;28;20453;-66
2024/02/19 02:24:20;;;;;;;34.60;33.60;;;21.40;59.80;;;;;;5027615;28;20445;-66
2024/02/19 02:26:48;;;;;;;28.60;27.47;;;21.40;59.90;;;;;;5027547;28;20855;-66
2024/02/19 02:29:15;;;;;;;26.37;25.57;;;21.40;59.90;;;;;;5027887;28;20860;-66
2024/02/19 02:31:42;;;;;;;27.23;26.43;;;21.40;59.90;;;;;;5027851;28;20441;-67
2024/02/19 02:34:09;;;;;;;27.80;26.90;;;21.40;60.00;;;;;;5027358;28;20441;-67
2024/02/19 02:36:35;;;;;;;28.17;27.30;;;21.40;59.90;;;;;;5035946;28;20461;-66
2024/02/19 02:39:02;;;;;;;27.60;26.80;;;21.40;60.00;;;;;;5024761;28;20933;-66
2024/02/19 02:41:29;;;;;;;27.80;27.00;;;21.40;60.00;;;;;;5022628;28;20942;-66
2024/02/19 02:43:57;;;;;;;27.60;26.70;;;21.30;60.00;;;;;;5024310;28;20953;-66
2024/02/19 02:46:24;;;;;;;28.90;27.90;;;21.30;60.00;;;;;;5028399;28;20485;-66
2024/02/19 02:48:51;;;;;;;28.73;27.73;;;21.30;60.00;;;;;;5023145;28;20461;-66
2024/02/19 02:51:18;;;;;;;28.03;27.13;;;21.30;60.10;;;;;;5025890;28;20460;-66
2024/02/19 02:53:45;;;;;;;27.60;26.70;;;21.30;60.00;;;;;;5025470;28;20816;-66
2024/02/19 02:56:18;;;;;;;27.87;27.00;;;21.30;60.00;;;;;;5021481;28;20454;-66
2024/02/19 02:58:45;;;;;;;27.50;26.60;;;21.30;60.10;;;;;;5015733;28;21022;-67
2024/02/19 03:01:15;;;;;;;28.60;27.40;;;21.30;60.10;;;;;;5025756;28;20944;-66
2024/02/19 03:03:42;;;;;;;29.17;28.17;;;21.30;60.00;;;;;;5025529;28;20495;-66
2024/02/19 03:06:08;;;;;;;28.17;27.17;;;21.20;59.90;;;;;;5022150;28;20484;-66
2024/02/19 03:08:35;;;;;;;30.00;28.97;;;21.20;59.90;;;;;;5028955;28;20441;-66
2024/02/19 03:11:03;;;;;;;30.53;29.30;;;21.30;60.00;;;;;;5023343;28;20442;-66
2024/02/19 03:13:31;;;;;;;29.67;28.40;;;21.30;60.10;;;;;;5021982;28;20446;-66
2024/02/19 03:15:58;;;;;;;29.90;29.00;;;21.20;60.00;;;;;;5022852;28;20474;-67
2024/02/19 03:18:26;;;;;;;29.83;28.83;;;21.20;60.00;;;;;;5022329;28;20450;-66
2024/02/19 03:20:53;;;;;;;28.20;27.30;;;21.20;60.00;;;;;;5022726;28;20469;-66
2024/02/19 03:23:21;;;;;;;29.70;28.80;;;21.20;60.20;;;;;;5025264;28;20437;-66
2024/02/19 03:25:48;;;;;;;31.43;30.13;;;21.20;60.20;;;;;;5024910;28;20471;-66
2024/02/19 03:28:15;;;;;;;35.10;33.97;;;21.20;60.20;;;;;;5025231;28;20847;-66
2024/02/19 03:30:41;;;;;;;33.63;32.63;;;21.20;60.30;;;;;;5025092;28;20441;-66
2024/02/19 03:33:08;;;;;;;30.53;29.53;;;21.20;60.30;;;;;;5022053;28;20442;-66
2024/02/19 03:35:36;;;;;;;29.87;28.97;;;21.20;60.30;;;;;;5034725;28;20457;-66
2024/02/19 03:38:03;;;;;;;30.03;28.93;;;21.20;60.40;;;;;;5053190;28;20818;-66
2024/02/19 03:40:30;;;;;;;31.40;30.30;;;21.20;60.40;;;;;;5052962;28;20441;-66
2024/02/19 03:42:56;;;;;;;30.37;29.47;;;21.20;60.40;;;;;;5052957;28;20448;-66
2024/02/19 03:45:23;;;;;;;31.30;30.30;;;21.20;60.50;;;;;;5052397;28;20459;-68
2024/02/19 03:47:50;;;;;;;30.30;29.40;;;21.20;60.50;;;;;;5052799;28;20476;-68
2024/02/19 03:50:17;;;;;;;30.80;29.70;;;21.20;60.50;;;;;;5051771;28;20966;-68
2024/02/19 03:52:45;;;;;;;29.97;29.07;;;21.20;60.60;;;;;;5052977;28;20448;-67
2024/02/19 03:55:12;;;;;;;27.40;26.43;;;21.20;60.60;;;;;;5051974;28;20520;-68
2024/02/19 03:57:39;;;;;;;27.07;26.17;;;21.20;60.60;;;;;;5052762;28;20448;-68
2024/02/19 04:00:09;;;;;;;27.93;27.00;;;21.10;60.50;;;;;;5052633;28;20510;-68
2024/02/19 04:02:36;;;;;;;27.70;26.90;;;21.10;60.50;;;;;;5052810;28;20444;-68
2024/02/19 04:05:03;;;;;;;28.47;27.50;;;21.10;60.60;;;;;;5051757;28;20487;-68
2024/02/19 04:07:30;;;;;;;27.93;26.93;;;21.10;60.70;;;;;;5052398;28;20990;-68
2024/02/19 04:09:58;;;;;;;27.50;26.70;;;21.10;60.80;;;;;;5052534;28;20479;-68
2024/02/19 04:12:24;;;;;;;29.03;28.13;;;21.10;60.70;;;;;;5052686;28;20445;-68
2024/02/19 04:14:51;;;;;;;29.00;28.07;;;21.10;60.80;;;;;;5051368;28;20468;-68
2024/02/19 04:17:18;;;;;;;27.80;26.90;;;21.10;60.80;;;;;;5052358;28;20456;-68
2024/02/19 04:19:44;;;;;;;27.63;26.83;;;21.10;60.90;;;;;;5052428;28;20444;-68
2024/02/19 04:22:11;;;;;;;29.37;28.47;;;21.10;60.90;;;;;;5052282;28;20449;-68
2024/02/19 04:24:39;;;;;;;28.97;28.07;;;21.10;60.90;;;;;;5045309;28;20433;-68
2024/02/19 04:27:07;;;;;;;27.77;26.90;;;21.10;60.90;;;;;;5051440;28;20484;-68
2024/02/19 04:29:33;;;;;;;29.20;28.20;;;21.10;61.00;;;;;;5052299;28;20447;-69
2024/02/19 04:32:00;;;;;;;31.40;30.50;;;21.10;61.10;;;;;;5052007;28;20508;-68
2024/02/19 04:34:27;;;;;;;29.80;28.80;;;21.10;61.10;;;;;;5051656;28;20438;-68
2024/02/19 04:36:54;;;;;;;28.47;27.23;;;21.10;61.10;;;;;;5051647;28;20488;-68
2024/02/19 04:39:21;;;;;;;28.97;27.73;;;21.10;61.20;;;;;;5052093;28;20444;-68
2024/02/19 04:41:47;;;;;;;29.13;28.13;;;21.10;61.20;;;;;;5052001;28;20475;-68
2024/02/19 04:44:15;;;;;;;28.50;27.60;;;21.10;61.20;;;;;;5051656;28;20440;-68
2024/02/19 04:46:42;;;;;;;28.73;27.83;;;21.10;61.30;;;;;;5051295;28;20494;-68
2024/02/19 04:49:09;;;;;;;28.90;28.00;;;21.10;61.30;;;;;;5051894;28;20444;-68
2024/02/19 04:51:35;;;;;;;28.70;27.80;;;21.10;61.30;;;;;;5051768;28;20436;-68
2024/02/19 04:54:02;;;;;;;27.97;27.17;;;21.10;61.30;;;;;;5051479;28;20819;-68
2024/02/19 04:56:29;;;;;;;28.33;27.43;;;21.10;61.30;;;;;;5051512;28;20460;-68
2024/02/19 04:58:56;;;;;;;28.90;28.00;;;21.10;61.30;;;;;;5051249;28;20444;-68
2024/02/19 05:01:24;;;;;;;31.00;30.10;;;21.10;61.40;;;;;;5051319;28;20448;-68
2024/02/19 05:03:50;;;;;;;29.90;28.90;;;21.10;61.40;;;;;;5051470;28;20804;-68
2024/02/19 05:06:17;;;;;;;30.23;29.33;;;21.10;61.50;;;;;;5051264;28;20460;-68
2024/02/19 05:08:44;;;;;;;31.10;30.00;;;21.00;61.50;;;;;;5051539;28;20484;-68
2024/02/19 05:11:11;;;;;;;33.27;32.17;;;21.10;61.60;;;;;;5051040;28;21046;-68
2024/02/19 05:13:37;;;;;;;34.67;33.57;;;21.10;61.70;;;;;;5051507;28;20436;-68
2024/02/19 05:16:06;;;;;;;29.87;28.97;;;21.00;61.60;;;;;;5051150;28;20464;-68
2024/02/19 05:18:34;;;;;;;34.60;33.30;;;21.10;61.70;;;;;;5051418;28;20838;-68
2024/02/19 05:21:02;;;;;;;34.83;33.73;;;21.10;61.70;;;;;;5051044;28;20444;-68
2024/02/19 05:23:29;;;;;;;32.80;31.80;;;21.00;61.60;;;;;;5051530;28;20514;-68
2024/02/19 05:25:55;;;;;;;31.60;30.60;;;21.10;61.80;;;;;;5051219;28;20468;-68
2024/02/19 05:28:22;;;;;;;29.80;28.90;;;21.10;61.80;;;;;;5051325;28;20476;-68
2024/02/19 05:30:49;;;;;;;30.40;29.50;;;21.10;61.80;;;;;;5051140;28;20823;-68
2024/02/19 05:33:18;;;;;;;33.10;32.00;;;21.10;61.90;;;;;;5051256;28;20459;-68
2024/02/19 05:35:46;;;;;;;34.10;32.90;;;21.10;61.90;;;;;;5050756;28;20530;-68
2024/02/19 05:38:13;;;;;;;32.50;31.50;;;21.10;62.00;;;;;;5051164;28;20444;-68
2024/02/19 05:40:39;;;;;;;33.83;32.83;;;21.10;62.00;;;;;;5051105;28;20480;-68
2024/02/19 05:43:06;;;;;;;32.83;31.73;;;21.10;62.10;;;;;;5051107;28;20444;-68
2024/02/19 05:45:35;;;;;;;30.83;29.83;;;21.10;62.20;;;;;;5050788;28;20469;-68
2024/02/19 05:48:01;;;;;;;33.67;32.57;;;21.10;62.10;;;;;;5050931;28;20479;-68
2024/02/19 05:50:30;;;;;;;34.30;33.20;;;21.10;62.20;;;;;;5051203;28;20444;-68
2024/02/19 05:52:58;;;;;;;33.90;32.80;;;21.10;62.30;;;;;;5050770;28;20440;-68
2024/02/19 05:55:24;;;;;;;33.00;31.90;;;21.10;62.50;;;;;;5050686;28;20970;-68
2024/02/19 05:57:51;;;;;;;36.40;35.27;;;21.10;62.60;;;;;;5051031;28;20444;-68
2024/02/19 06:00:19;;;;;;;34.83;33.73;;;21.10;62.60;;;;;;5050982;28;20445;-68
2024/02/19 06:02:46;;;;;;;35.50;34.40;;;21.10;62.70;;;;;;5050943;28;20455;-69
2024/02/19 06:05:12;;;;;;;34.77;33.73;;;21.10;62.70;;;;;;5050227;28;20531;-68
2024/02/19 06:07:40;;;;;;;32.43;31.43;;;21.10;62.80;;;;;;5050802;28;20504;-68
2024/02/19 06:10:09;;;;;;;34.47;33.37;;;21.10;62.80;;;;;;5050998;28;20452;-68
2024/02/19 06:12:35;;;;;;;32.40;31.30;;;21.10;62.80;;;;;;5051042;28;20448;-68
2024/02/19 06:15:03;;;;;;;31.03;29.93;;;21.10;62.80;;;;;;5054185;28;20444;-68
2024/02/19 06:17:29;;;;;;;31.10;30.20;;;21.10;62.70;;;;;;5054692;28;20432;-69
2024/02/19 06:19:59;;;;;;;31.10;29.90;;;21.10;63.50;;;;;;5054324;28;20436;-68
2024/02/19 06:22:25;;;;;;;33.00;31.80;;;21.10;63.20;;;;;;5054647;28;20442;-68
2024/02/19 06:24:52;;;;;;;32.70;31.50;;;21.10;64.00;;;;;;5054182;28;20447;-68
2024/02/19 06:27:20;;;;;;;33.30;31.97;;;21.10;64.50;;;;;;5054172;28;20851;-68
2024/02/19 06:29:47;;;;;;;34.97;33.40;;;21.10;64.50;;;;;;5054243;28;20432;-66
2024/02/19 06:32:13;;;;;;;33.33;31.93;;;21.10;65.50;;;;;;5054227;28;20939;-68
2024/02/19 06:34:41;;;;;;;32.33;31.03;;;21.20;66.50;;;;;;5053143;28;20436;-68
2024/02/19 06:37:07;;;;;;;37.33;35.13;;;21.20;67.30;;;;;;5053747;28;20471;-69
2024/02/19 06:39:35;;;;;;;34.27;32.43;;;21.20;67.70;;;;;;5054197;28;20447;-68
2024/02/19 06:42:02;;;;;;;37.90;35.50;;;21.20;67.90;;;;;;5053959;28;20452;-69
2024/02/19 06:44:30;;;;;;;34.80;33.30;;;21.20;67.90;;;;;;5053924;28;20440;-68
2024/02/19 06:46:57;;;;;;;34.97;33.43;;;21.20;67.60;;;;;;5053559;28;20491;-69
2024/02/19 06:49:24;;;;;;;36.30;34.50;;;21.20;67.40;;;;;;5054028;28;20484;-69
2024/02/19 06:51:51;;;;;;;37.03;35.33;;;21.20;67.20;;;;;;5053963;28;20794;-68
2024/02/19 06:54:17;;;;;;;37.60;35.00;;;21.20;66.90;;;;;;5053623;28;20448;-68
2024/02/19 06:56:44;;;;;;;34.80;33.30;;;21.20;66.70;;;;;;5053451;28;20467;-68
2024/02/19 06:59:11;;;;;;;33.63;32.40;;;21.20;66.50;;;;;;5053766;28;20940;-69
2024/02/19 07:01:39;;;;;;;34.43;32.73;;;21.20;66.30;;;;;;5053687;28;20452;-68
2024/02/19 07:04:06;;;;;;;36.47;35.00;;;21.20;66.00;;;;;;5053354;28;20472;-69
2024/02/19 07:06:33;;;;;;;35.23;33.93;;;21.20;65.80;;;;;;5053357;28;20456;-69
2024/02/19 07:08:59;;;;;;;36.03;34.50;;;21.30;65.80;;;;;;5053482;28;21029;-68
2024/02/19 07:11:26;;;;;;;36.63;35.20;;;21.30;65.60;;;;;;5053499;28;20467;-69
2024/02/19 07:13:55;;;;;;;35.87;34.43;;;21.30;65.40;;;;;;5053403;28;20450;-68
2024/02/19 07:16:22;;;;;;;38.77;37.10;;;21.30;65.30;;;;;;5052980;28;20460;-69
2024/02/19 07:18:50;;;;;;;36.90;35.40;;;21.30;65.20;;;;;;5053377;28;20444;-69
2024/02/19 07:21:17;;;;;;;39.50;37.90;;;21.30;65.00;;;;;;5053295;28;20447;-69
2024/02/19 07:23:44;;;;;;;35.20;33.90;;;21.30;64.80;;;;;;5053109;28;20444;-68
2024/02/19 07:26:11;;;;;;;39.70;37.90;;;21.30;64.70;;;;;;5052861;28;20468;-68
2024/02/19 07:28:37;;;;;;;35.57;34.20;;;21.30;64.60;;;;;;5053185;28;20480;-69
2024/02/19 07:31:04;;;;;;;35.40;34.20;;;21.30;64.50;;;;;;5053046;28;20451;-68
2024/02/19 07:33:32;;;;;;;39.03;37.30;;;21.40;64.50;;;;;;5053170;28;20447;-69
2024/02/19 07:36:00;;;;;;;39.03;37.60;;;21.40;64.30;;;;;;5052609;28;21030;-68
2024/02/19 07:38:26;;;;;;;36.20;34.90;;;21.40;64.20;;;;;;5053099;28;20439;-69
2024/02/19 07:40:53;;;;;;;37.43;35.83;;;21.40;64.10;;;;;;5052948;28;20444;-69
2024/02/19 07:43:20;;;;;;;38.13;36.40;;;21.40;64.00;;;;;;5052784;28;20440;-69
2024/02/19 07:45:46;;;;;;;36.83;35.43;;;21.40;63.90;;;;;;5052358;28;20851;-68
2024/02/19 07:48:13;;;;;;;38.13;36.30;;;21.40;63.90;;;;;;5052633;28;20484;-69
2024/02/19 07:50:41;;;;;;;35.00;33.90;;;21.40;63.70;;;;;;5052762;28;20444;-69
2024/02/19 07:53:09;;;;;;;36.60;35.10;;;21.40;63.70;;;;;;5052567;28;20448;-69
2024/02/19 07:55:37;;;;;;;34.13;32.80;;;21.40;63.60;;;;;;5052231;28;20460;-69
2024/02/19 07:58:04;;;;;;;35.97;34.67;;;21.50;63.60;;;;;;5052540;28;20441;-69
2024/02/19 08:00:31;;;;;;;36.03;34.83;;;21.40;63.40;;;;;;5052603;28;20479;-69
2024/02/19 08:02:58;;;;;;;34.60;33.50;;;21.40;63.30;;;;;;5052556;28;20452;-68
2024/02/19 08:05:24;;;;;;;36.20;34.40;;;21.50;63.30;;;;;;5051899;28;20471;-69
2024/02/19 08:07:51;;;;;;;37.07;35.77;;;21.50;63.20;;;;;;5052382;28;20476;-70
2024/02/19 08:10:19;;;;;;;36.63;35.33;;;21.50;63.20;;;;;;5052269;28;20947;-69
2024/02/19 08:12:46;;;;;;;39.50;38.10;;;21.50;63.10;;;;;;5052297;28;20451;-69
2024/02/19 08:15:12;;;;;;;38.50;37.20;;;21.50;63.00;;;;;;5051719;28;20447;-69
2024/02/19 08:17:39;;;;;;;35.53;34.07;;;21.50;62.90;;;;;;5052388;28;20551;-69
2024/02/19 08:20:07;;;;;;;37.73;36.53;;;21.50;62.80;;;;;;5052174;28;20459;-68
2024/02/19 08:22:34;;;;;;;37.37;36.17;;;21.50;62.70;;;;;;5052223;28;20452;-69
2024/02/19 08:25:01;;;;;;;36.90;35.10;;;21.50;62.60;;;;;;5051852;28;20444;-69
2024/02/19 08:27:29;;;;;;;36.47;35.17;;;21.50;62.60;;;;;;5044007;28;20444;-69
2024/02/19 08:29:55;;;;;;;35.03;33.90;;;21.50;62.50;;;;;;5052011;28;20853;-69
2024/02/19 08:32:22;;;;;;;34.50;33.30;;;21.60;62.50;;;;;;5051915;28;20444;-69
2024/02/19 08:34:49;;;;;;;36.37;35.17;;;21.60;62.40;;;;;;5051496;28;20962;-69
2024/02/19 08:37:18;;;;;;;35.07;33.80;;;21.60;62.40;;;;;;5051411;28;20460;-69
2024/02/19 08:39:45;;;;;;;35.83;34.63;;;21.60;62.30;;;;;;5051893;28;20440;-69
2024/02/19 08:42:12;;;;;;;36.10;34.90;;;21.60;62.20;;;;;;5051742;28;20444;-68
2024/02/19 08:44:40;;;;;;;35.50;34.30;;;21.60;62.90;;;;;;5051867;28;20440;-69
2024/02/19 08:47:08;;;;;;;38.80;37.37;;;21.60;62.00;;;;;;5051383;28;20463;-69
2024/02/19 08:49:37;;;;;;;37.70;36.40;;;21.60;62.00;;;;;;5051741;28;20506;-69
2024/02/19 08:52:04;;;;;;;36.90;35.70;;;21.60;62.00;;;;;;5051555;28;20893;-68
2024/02/19 08:54:31;;;;;;;37.60;36.20;;;21.60;61.90;;;;;;5051541;28;20788;-69
2024/02/19 08:56:58;;;;;;;37.60;36.23;;;21.60;61.80;;;;;;5051312;28;20464;-69
2024/02/19 08:59:25;;;;;;;35.13;34.03;;;21.60;61.70;;;;;;5051320;28;20440;-68
2024/02/19 09:01:53;;;;;;;38.30;37.00;;;21.70;61.80;;;;;;5051413;28;20794;-68
2024/02/19 09:04:21;;;;;;;36.43;35.10;;;21.70;61.70;;;;;;5051205;28;20977;-69
2024/02/19 09:06:47;;;;;;;34.00;32.80;;;21.70;61.70;;;;;;5050929;28;20526;-69
2024/02/19 09:09:14;;;;;;;35.43;34.30;;;21.70;61.60;;;;;;5051202;28;20487;-69
2024/02/19 09:11:41;;;;;;;37.40;36.10;;;21.70;61.60;;;;;;5051455;28;20840;-69
2024/02/19 09:14:07;;;;;;;36.47;35.27;;;21.70;61.50;;;;;;5051126;28;20440;-68
2024/02/19 09:16:34;;;;;;;34.83;33.63;;;21.70;61.40;;;;;;5050941;28;20804;-69
2024/02/19 09:19:06;;;;;;;34.90;33.80;;;21.70;61.30;;;;;;5051574;28;20751;-69
2024/02/19 09:21:32;;;;;;;35.37;34.23;;;21.70;61.40;;;;;;5043477;28;20444;-69
2024/02/19 09:23:59;;;;;;;35.00;33.70;;;21.70;61.20;;;;;;5051310;28;20436;-68
2024/02/19 09:26:26;;;;;;;35.50;34.20;;;21.70;61.20;;;;;;5050809;28;20460;-68
2024/02/19 09:28:52;;;;;;;34.97;33.87;;;21.70;61.10;;;;;;5051236;28;20484;-69
2024/02/19 09:31:23;;;;;;;36.30;35.20;;;21.70;61.10;;;;;;5051048;28;20468;-68
2024/02/19 09:33:49;;;;;;;37.90;36.43;;;21.70;61.00;;;;;;5051048;28;20557;-68
2024/02/19 09:36:18;;;;;;;35.70;34.40;;;21.70;61.00;;;;;;5050485;28;20472;-68
2024/02/19 09:38:45;;;;;;;35.23;34.07;;;21.70;60.90;;;;;;5051235;28;20451;-69
2024/02/19 09:41:12;;;;;;;36.17;34.97;;;21.80;60.90;;;;;;5050911;28;20452;-69
2024/02/19 09:43:38;;;;;;;37.33;36.13;;;21.70;60.80;;;;;;5051043;28;20440;-69
2024/02/19 09:46:07;;;;;;;35.77;34.47;;;21.80;60.90;;;;;;5050778;28;20860;-69
2024/02/19 09:48:35;;;;;;;35.57;34.30;;;21.70;60.70;;;;;;5045199;28;20525;-66
2024/02/19 09:51:04;;;;;;;37.73;36.43;;;21.80;60.70;;;;;;5055055;28;20951;-67
2024/02/19 09:53:35;;;;;;;36.83;35.57;;;21.80;60.70;;;;;;5046779;28;20436;-66
2024/02/19 09:56:02;;;;;;;35.93;34.70;;;21.80;60.70;;;;;;5054710;28;20456;-66
2024/02/19 09:58:30;;;;;;;36.80;35.60;;;21.80;60.70;;;;;;5054946;28;20440;-66
2024/02/19 10:00:57;;;;;;;36.23;35.03;;;21.80;60.60;;;;;;5054869;28;20440;-66
2024/02/19 10:03:23;;;;;;;35.90;34.60;;;21.80;60.50;;;;;;5054724;28;20940;-67
2024/02/19 10:05:50;;;;;;;35.13;34.03;;;21.80;60.50;;;;;;5054355;28;20460;-67
2024/02/19 10:08:17;;;;;;;35.27;34.07;;;21.80;60.50;;;;;;5054678;28;20444;-67
2024/02/19 10:10:46;;;;;;;39.47;38.07;;;21.80;60.40;;;;;;5054762;28;20440;-67
2024/02/19 10:13:13;;;;;;;36.57;35.37;;;21.80;60.40;;;;;;5054524;28;20444;-67
2024/02/19 10:15:40;;;;;;;39.23;38.03;;;21.80;60.40;;;;;;5054484;28;20448;-66
2024/02/19 10:18:15;;;;;;;37.07;35.77;;;21.80;60.30;;;;;;5054644;28;20432;-66
2024/02/19 10:20:44;;;;;;;38.30;37.00;;;21.80;60.30;;;;;;5047636;28;20451;-67
2024/02/19 10:23:11;;;;;;;39.60;38.30;;;21.80;60.20;;;;;;5054555;28;20436;-66
2024/02/19 10:25:37;;;;;;;37.50;36.20;;;21.80;60.20;;;;;;5054067;28;20451;-66
2024/02/19 10:28:08;;;;;;;39.50;38.20;;;21.80;60.10;;;;;;5054487;28;21056;-67
2024/02/19 10:30:35;;;;;;;41.17;39.57;;;21.80;60.10;;;;;;5046240;28;20472;-67
2024/02/19 10:33:02;;;;;;;38.57;37.17;;;21.80;60.00;;;;;;5054305;28;20452;-66
2024/02/19 10:35:30;;;;;;;37.93;36.37;;;21.80;60.00;;;;;;5053639;28;20460;-66
2024/02/19 10:37:59;;;;;;;36.67;35.47;;;21.80;60.00;;;;;;5054545;28;20448;-66
2024/02/19 10:40:26;;;;;;;38.00;36.70;;;21.80;60.10;;;;;;5054017;28;20451;-66
2024/02/19 10:42:54;;;;;;;35.03;33.83;;;21.80;59.90;;;;;;5054058;28;20436;-66
2024/02/19 10:45:23;;;;;;;33.30;32.23;;;21.80;59.90;;;;;;5053606;28;20522;-66
2024/02/19 10:47:50;;;;;;;36.57;35.37;;;21.80;59.90;;;;;;5054062;28;20447;-66
2024/02/19 10:50:18;;;;;;;40.47;39.17;;;21.80;59.90;;;;;;5053953;28;20916;-66
2024/02/19 10:52:45;;;;;;;35.07;33.87;;;21.80;59.80;;;;;;5053973;28;20447;-66
2024/02/19 10:55:13;;;;;;;38.47;37.20;;;21.90;59.90;;;;;;5053408;28;20451;-66
2024/02/19 10:57:46;;;;;;;38.87;37.47;;;21.80;59.80;;;;;;5053829;28;20440;-66
2024/02/19 11:00:14;;;;;;;36.30;35.10;;;21.90;59.80;;;;;;5053204;28;20441;-66
2024/02/19 11:02:42;;;;;;;33.77;32.67;;;21.90;59.80;;;;;;5053777;28;20444;-66
2024/02/19 11:05:10;;;;;;;37.80;36.60;;;21.90;59.80;;;;;;5053474;28;20447;-66
2024/02/19 11:07:37;;;;;;;35.00;33.43;;;21.90;59.70;;;;;;5045899;28;20468;-66
2024/02/19 11:10:04;;;;;;;37.20;36.00;;;21.90;59.70;;;;;;5053531;28;20853;-66
2024/02/19 11:12:31;;;;;;;35.77;34.57;;;21.90;59.70;;;;;;5053559;28;20439;-66
2024/02/19 11:14:58;;;;;;;35.20;34.00;;;21.90;59.60;;;;;;5053121;28;20527;-66
2024/02/19 11:17:24;;;;;;;35.13;33.93;;;21.90;59.60;;;;;;5053295;28;20491;-66
2024/02/19 11:19:53;;;;;;;35.47;34.27;;;21.90;59.60;;;;;;5053442;28;20440;-66
2024/02/19 11:22:29;;;;;;;36.40;35.20;;;21.90;59.50;;;;;;5053255;28;20452;-66
2024/02/19 11:24:55;;;;;;;35.83;34.63;;;21.90;59.50;;;;;;5052940;28;20447;-66
2024/02/19 11:27:22;;;;;;;36.40;35.10;;;21.90;59.50;;;;;;5053134;28;20974;-66
2024/02/19 11:29:55;;;;;;;36.73;35.43;;;21.90;59.50;;;;;;5053511;28;20476;-66
2024/02/19 11:32:22;;;;;;;36.10;34.80;;;21.90;59.50;;;;;;5053134;28;20823;-66
2024/02/19 11:34:49;;;;;;;34.67;33.53;;;21.90;59.50;;;;;;5052595;28;20952;-67
2024/02/19 11:37:17;;;;;;;33.70;32.60;;;21.90;59.50;;;;;;5052873;28;20452;-66
2024/02/19 11:39:44;;;;;;;34.83;33.63;;;21.90;59.40;;;;;;5053126;28;20451;-66
2024/02/19 11:42:14;;;;;;;34.73;33.53;;;21.90;59.40;;;;;;5053117;28;20440;-66
2024/02/19 11:44:41;;;;;;;34.83;33.73;;;21.90;59.40;;;;;;5045419;28;20455;-66
2024/02/19 11:47:09;;;;;;;34.63;33.43;;;21.90;59.40;;;;;;5052532;28;20471;-66
2024/02/19 11:49:37;;;;;;;33.90;32.80;;;21.90;59.40;;;;;;5044498;28;20849;-66
2024/02/19 11:52:06;;;;;;;35.10;33.90;;;21.90;59.30;;;;;;5053018;28;20452;-66
2024/02/19 11:54:34;;;;;;;35.00;33.80;;;21.90;59.30;;;;;;5052638;28;20518;-66
2024/02/19 11:57:03;;;;;;;35.27;34.07;;;21.90;59.30;;;;;;5052439;28;20496;-66
2024/02/19 11:59:31;;;;;;;36.57;35.37;;;21.90;59.30;;;;;;5052593;28;20460;-66
2024/02/19 12:01:58;;;;;;;34.40;33.20;;;22.00;59.40;;;;;;5052865;28;20443;-66
2024/02/19 12:04:25;;;;;;;40.43;39.13;;;21.90;59.20;;;;;;5052528;28;20527;-66
2024/02/19 12:06:52;;;;;;;35.63;34.53;;;21.90;59.20;;;;;;5052396;28;20932;-66
2024/02/19 12:09:19;;;;;;;36.07;34.97;;;21.90;59.20;;;;;;5052044;28;20480;-66
2024/02/19 12:11:47;;;;;;;35.53;34.33;;;21.90;59.20;;;;;;5051752;28;20443;-66
2024/02/19 12:14:17;;;;;;;36.60;35.40;;;21.90;59.20;;;;;;5052341;28;20818;-67
2024/02/19 12:16:45;;;;;;;34.90;33.80;;;22.00;59.20;;;;;;5051976;28;20467;-66
2024/02/19 12:19:12;;;;;;;38.70;37.30;;;22.00;59.20;;;;;;5052334;28;20441;-66
2024/02/19 12:21:42;;;;;;;38.67;37.37;;;22.00;59.20;;;;;;5044071;28;20440;-67
2024/02/19 12:24:10;;;;;;;38.57;37.27;;;21.90;59.10;;;;;;5052095;28;20522;-66
2024/02/19 12:26:38;;;;;;;36.50;35.37;;;22.00;59.20;;;;;;5051830;28;20998;-66
2024/02/19 12:29:06;;;;;;;36.90;35.70;;;22.00;59.20;;;;;;5052098;28;20518;-66
2024/02/19 12:31:32;;;;;;;39.63;38.33;;;22.00;59.10;;;;;;5051907;28;20451;-66
2024/02/19 12:33:59;;;;;;;38.70;37.40;;;22.00;59.10;;;;;;5051839;28;20444;-66
2024/02/19 12:36:26;;;;;;;36.63;35.53;;;22.00;59.10;;;;;;5051448;28;20835;-66
2024/02/19 12:38:55;;;;;;;36.57;35.37;;;22.00;59.10;;;;;;5051951;28;20451;-66
2024/02/19 12:41:21;;;;;;;39.27;37.87;;;22.00;59.10;;;;;;5051955;28;20444;-66